Flight Track Log - Related Links

Times and Time Zones

All times are in EST time to prevent confusion due to time zone crossing. See the AAY843 flight status page for this flight to view local times or setup timezone preferences in your user account.

Time Position Orientation Groundspeed Altitude Reporting Facility
EST Latitude Longitude Course Direction KTS MPH feet Rate Location/Type
Mon 07:03:19 PM 43.1069 -76.1361 230° Southwest 146 168 1,600  Level Boston Center
Mon 07:04:19 PM 43.0772 -76.1850 230° Southwest 221 254 3,800 2,523 Climbing Boston Center
Mon 07:05:06 PM 43.0300 -76.2036 196° South 254 292 6,100 3,246 Climbing Boston Center
Mon 07:05:20 PM 43.0156 -76.2208 221° Southwest 277 319 7,100 3,148 Climbing Boston Center
Mon 07:06:07 PM 42.9717 -76.2689 219° Southwest 272 313 9,300 1,667 Climbing Boston Center
Mon 07:07:08 PM 42.8956 -76.3381 214° Southwest 322 371 10,100 1,525 Climbing Boston Center
Mon 07:08:09 PM 42.8122 -76.4086 212° Southwest 351 404 12,400 2,754 Climbing Boston Center
Mon 07:09:10 PM 42.7192 -76.4917 213° Southwest 367 422 15,700 2,262 Climbing Boston Center
Mon 07:10:11 PM 42.6297 -76.5681 212° Southwest 376 433 17,000 639 Climbing Boston Center
Mon 07:11:12 PM 42.5406 -76.6456 213° Southwest 379 436 17,000 148 Level Boston Center
Mon 07:12:13 PM 42.4494 -76.7206 211° Southwest 380 437 17,300 639 Climbing Boston Center
Mon 07:13:14 PM 42.3403 -76.7569 194° South 406 467 18,300 1,180 Climbing Boston Center
Mon 07:14:15 PM 42.2258 -76.7744 186° South 414 476 19,700 1,377 Climbing Boston Center
Mon 07:15:16 PM 42.1092 -76.7925 187° South 418 481 21,100 1,192 Climbing Boston Center
Mon 07:16:46 PM 41.9278 -76.8214 187° South 439 505 22,700 1,145 Climbing New York Center
Mon 07:17:48 PM 41.7914 -76.8431 187° South 440 506 24,000 1,306 Climbing New York Center
Mon 07:18:50 PM 41.6686 -76.8653 188° South 442 509 25,400 1,403 Climbing New York Center
Mon 07:19:52 PM 41.5522 -76.9119 197° South 437 503 26,900 1,742 Climbing New York Center
Mon 07:20:54 PM 41.4292 -76.9544 195° South 436 502 29,000 1,500 Climbing New York Center
Mon 07:21:56 PM 41.3197 -76.9950 196° South 417 480 30,000 484 Climbing New York Center
Mon 07:22:58 PM 41.2122 -77.0356 196° South 411 473 30,000  Level New York Center
Mon 07:23:59 PM 41.0814 -77.0831 195° South 404 465 30,000  Level New York Center
Mon 07:25:01 PM 40.9731 -77.1247 196° South 408 470 30,000  Level New York Center
Mon 07:26:03 PM 40.8622 -77.1631 195° South 413 475 30,000  Level New York Center
Mon 07:27:05 PM 40.7489 -77.2047 196° South 412 474 30,000  Level New York Center
Mon 07:28:08 PM 40.6422 -77.2439 196° South 412 474 30,000  Level New York Center
Mon 07:29:09 PM 40.5308 -77.2850 196° South 413 475 30,000  Level New York Center
Mon 07:30:11 PM 40.3975 -77.3308 195° South 418 481 30,000  Level New York Center
Mon 07:31:13 PM 40.2844 -77.3719 196° South 420 483 30,000  Level New York Center
Mon 07:32:15 PM 40.1725 -77.4114 195° South 419 482 30,000  Level New York Center
Mon 07:33:17 PM 40.0631 -77.4489 195° South 419 482 30,000  Level New York Center
Mon 07:34:19 PM 39.9272 -77.4992 196° South 421 484 30,000  Level New York Center
Mon 07:35:20 PM 39.8136 -77.5389 195° South 424 488 30,000  Level New York Center
Mon 07:36:22 PM 39.6992 -77.5786 195° South 425 489 30,000  Level New York Center
Mon 07:37:24 PM 39.5869 -77.6178 195° South 419 482 30,000  Level New York Center
Mon 07:38:03 PM 39.5192 -77.6414 195° South 419 482 30,000  Level Washington Center
Mon 07:39:03 PM 39.4061 -77.6786 194° South 419 482 30,000  Level Washington Center
Mon 07:40:03 PM 39.2906 -77.7208 196° South 419 482 30,000 51 Level Washington Center
Mon 07:41:01 PM 39.1717 -77.7333 185° South 425 489 30,100  Climbing Washington Center
Mon 07:42:04 PM 39.0367 -77.7081 172° South 435 501 30,000 -49 Descending Washington Center
Mon 07:43:03 PM 38.9139 -77.6858 172° South 447 514 30,000  Level Washington Center
Mon 07:44:02 PM 38.7931 -77.6906 182° South 447 514 30,000  Level Washington Center
Mon 07:45:04 PM 38.6733 -77.7350 196° South 433 498 30,000  Level Washington Center
Mon 07:46:01 PM 38.5619 -77.7794 197° South 433 498 30,000  Level Washington Center
Mon 07:47:03 PM 38.4464 -77.8239 197° South 433 498 30,000  Level Washington Center
Mon 07:48:01 PM 38.3478 -77.8633 197° South 433 498 30,000  Level Washington Center
Mon 07:49:02 PM 38.2364 -77.9047 196° South 427 491 30,000  Level Washington Center
Mon 07:50:02 PM 38.1231 -77.9489 197° South 427 491 30,000  Level Washington Center
Mon 07:51:01 PM 38.0094 -77.9900 196° South 427 491 30,000  Level Washington Center
Mon 07:52:02 PM 37.8919 -78.0364 197° South 427 491 30,000  Level Washington Center
Mon 07:53:02 PM 37.7783 -78.0800 197° South 427 491 30,000  Level Washington Center
Mon 07:54:03 PM 37.6647 -78.1233 197° South 432 497 30,000  Level Washington Center
Mon 07:55:04 PM 37.5531 -78.1747 200° South 432 497 30,000  Level Washington Center
Mon 07:56:01 PM 37.4375 -78.2231 198° South 432 497 30,000  Level Washington Center
Mon 07:57:02 PM 37.3217 -78.2714 198° South 432 497 30,000  Level Washington Center
Mon 07:58:02 PM 37.2078 -78.3194 199° South 432 497 30,000  Level Washington Center
Mon 07:59:01 PM 37.0794 -78.3722 198° South 437 503 30,000  Level Washington Center
Mon 08:00:01 PM 36.9678 -78.4203 199° South 437 503 30,000  Level Washington Center
Mon 08:01:03 PM 36.8664 -78.4633 199° South 428 493 30,000  Level Washington Center
Mon 08:02:03 PM 36.7442 -78.5131 198° South 428 493 30,000  Level Washington Center
Mon 08:03:02 PM 36.6450 -78.5586 200° South 428 493 30,000  Level Washington Center
Mon 08:04:02 PM 36.5356 -78.6036 198° South 428 493 30,000  Level Washington Center
Mon 08:05:02 PM 36.4281 -78.6483 199° South 428 493 30,000  Level Washington Center
Mon 08:06:01 PM 36.3203 -78.6933 199° South 423 487 30,000  Level Washington Center
Mon 08:07:02 PM 36.2108 -78.7378 198° South 418 481 30,000  Level Washington Center
Mon 08:08:03 PM 36.1075 -78.7800 198° South 413 475 30,000  Level Washington Center
Mon 08:09:03 PM 36.0039 -78.8219 198° South 402 463 30,000  Level Washington Center
Mon 08:10:01 PM 35.8942 -78.8661 198° South 407 468 30,000  Level Washington Center
Mon 08:11:01 PM 35.7908 -78.9081 198° South 407 468 30,000  Level Washington Center
Mon 08:12:03 PM 35.6747 -78.9569 199° South 407 468 30,000  Level Washington Center
Mon 08:13:04 PM 35.5694 -78.9958 197° South 407 468 30,000  Level Washington Center
Mon 08:14:01 PM 35.4658 -79.0375 198° South 407 468 30,000  Level Washington Center
Mon 08:15:02 PM 35.3644 -79.0789 198° South 402 463 30,000  Level Washington Center
Mon 08:16:03 PM 35.2611 -79.1203 198° South 397 457 30,000  Level Washington Center
Mon 08:17:03 PM 35.1597 -79.1614 198° South 397 457 30,000  Level Washington Center
Mon 08:18:03 PM 35.0583 -79.2028 198° South 391 450 30,000  Level Washington Center
Mon 08:19:01 PM 34.9569 -79.2411 197° South 391 450 30,000  Level Washington Center
Mon 08:21:01 PM 34.7517 -79.3222 198° South 386 444 30,000  Level Jacksonville Center
Mon 08:22:01 PM 34.6486 -79.3619 198° South 386 444 30,000  Level Jacksonville Center
Mon 08:23:01 PM 34.5583 -79.4186 207° Southwest 381 438 30,000  Level Jacksonville Center
Mon 08:24:01 PM 34.4747 -79.4825 212° Southwest 365 420 30,000  Level Jacksonville Center
Mon 08:25:01 PM 34.3889 -79.5511 213° Southwest 365 420 30,000  Level Jacksonville Center
Mon 08:26:01 PM 34.3069 -79.6122 212° Southwest 365 420 30,000  Level Jacksonville Center
Mon 08:27:01 PM 34.2314 -79.6703 212° Southwest 356 410 30,000  Level Jacksonville Center
Mon 08:28:01 PM 34.1453 -79.7361 212° Southwest 356 410 30,000  Level Jacksonville Center
Mon 08:29:01 PM 34.0614 -79.7994 212° Southwest 362 417 30,000  Level Jacksonville Center
Mon 08:30:01 PM 33.9753 -79.8625 211° Southwest 362 417 30,000  Level Jacksonville Center
Mon 08:31:01 PM 33.8892 -79.9281 212° Southwest 362 417 30,000  Level Jacksonville Center
Mon 08:32:01 PM 33.8050 -79.9908 212° Southwest 362 417 30,000  Level Jacksonville Center
Mon 08:33:01 PM 33.7169 -80.0561 212° Southwest 362 417 30,000  Level Jacksonville Center
Mon 08:34:01 PM 33.6308 -80.1211 212° Southwest 362 417 30,000  Level Jacksonville Center
Mon 08:35:01 PM 33.5464 -80.1836 212° Southwest 362 417 30,000  Level Jacksonville Center
Mon 08:36:01 PM 33.4622 -80.2486 213° Southwest 362 417 30,000  Level Jacksonville Center
Mon 08:37:01 PM 33.3719 -80.3133 211° Southwest 362 417 30,000  Level Jacksonville Center
Mon 08:38:01 PM 33.2875 -80.3756 212° Southwest 362 417 30,000  Level Jacksonville Center
Mon 08:39:01 PM 33.2011 -80.4425 213° Southwest 362 417 30,000  Level Jacksonville Center
Mon 08:40:01 PM 33.1125 -80.5044 210° Southwest 367 422 30,000  Level Jacksonville Center
Mon 08:41:01 PM 33.0322 -80.5611 211° Southwest 374 430 30,000  Level Jacksonville Center
Mon 08:42:01 PM 32.9272 -80.6381 212° Southwest 379 436 30,000  Level Jacksonville Center
Mon 08:43:01 PM 32.8364 -80.7019 211° Southwest 379 436 30,000  Level Jacksonville Center
Mon 08:44:01 PM 32.7478 -80.7658 211° Southwest 379 436 30,000  Level Jacksonville Center
Mon 08:45:01 PM 32.6592 -80.8297 211° Southwest 379 436 30,000  Level Jacksonville Center
Mon 08:46:01 PM 32.5703 -80.8958 212° Southwest 379 436 30,000  Level Jacksonville Center
Mon 08:47:01 PM 32.4836 -80.9594 212° Southwest 375 432 30,000  Level Jacksonville Center
Mon 08:48:01 PM 32.3969 -81.0228 212° Southwest 369 425 30,000  Level Jacksonville Center
Mon 08:49:01 PM 32.3061 -81.0861 211° Southwest 376 433 30,000  Level Jacksonville Center
Mon 08:50:01 PM 32.2172 -81.1467 210° Southwest 382 440 30,000  Level Jacksonville Center
Mon 08:51:01 PM 32.1303 -81.2122 213° Southwest 382 440 30,000  Level Jacksonville Center
Mon 08:52:01 PM 32.0456 -81.2847 216° Southwest 382 440 30,000  Level Jacksonville Center
Mon 08:53:01 PM 31.9631 -81.3547 216° Southwest 377 434 30,000  Level Jacksonville Center
Mon 08:54:01 PM 31.8783 -81.4272 216° Southwest 377 434 30,000  Level Jacksonville Center
Mon 08:55:01 PM 31.8039 -81.4894 215° Southwest 377 434 30,000  Level Jacksonville Center
Mon 08:56:01 PM 31.7067 -81.5689 215° Southwest 388 447 30,000  Level Jacksonville Center
Mon 08:57:01 PM 31.6239 -81.6383 216° Southwest 377 434 30,000  Level Jacksonville Center
Mon 08:58:01 PM 31.5386 -81.6858 205° Southwest 378 435 30,000  Level Jacksonville Center
Mon 08:59:01 PM 31.4200 -81.7264 196° South 403 464 30,000  Level Jacksonville Center
Mon 09:00:01 PM 31.3222 -81.7617 197° South 405 466 30,000  Level Jacksonville Center
Mon 09:01:01 PM 31.2161 -81.7969 196° South 405 466 30,000  Level Jacksonville Center
Mon 09:02:01 PM 31.1097 -81.8347 197° South 405 466 30,000  Level Jacksonville Center
Mon 09:03:01 PM 31.0017 -81.8747 198° South 405 466 30,000  Level Jacksonville Center
Mon 09:04:01 PM 30.8911 -81.9122 196° South 405 466 30,000  Level Jacksonville Center
Mon 09:05:01 PM 30.7828 -81.9494 196° South 405 466 30,000  Level Jacksonville Center
Mon 09:06:01 PM 30.6706 -81.9892 197° South 405 466 30,000  Level Jacksonville Center
Mon 09:07:01 PM 30.5517 -82.0242 194° South 410 472 30,000  Level Jacksonville Center
Mon 09:08:01 PM 30.4414 -82.0636 197° South 415 478 30,000  Level Jacksonville Center
Mon 09:09:01 PM 30.3308 -82.1056 198° South 420 483 30,000  Level Jacksonville Center
Mon 09:10:01 PM 30.2206 -82.1400 195° South 416 479 30,000  Level Jacksonville Center
Mon 09:11:01 PM 30.1100 -82.1794 197° South 416 479 30,000  Level Jacksonville Center
Mon 09:12:01 PM 30.0017 -82.2186 197° South 416 479 30,000 -350 Level Jacksonville Center
Mon 09:13:01 PM 29.8933 -82.2578 197° South 416 479 29,300 -850 Descending Jacksonville Center
Mon 09:14:01 PM 29.7828 -82.2944 196° South 421 484 28,300 -900 Descending Jacksonville Center
Mon 09:15:01 PM 29.6806 -82.3261 195° South 421 484 27,500 -900 Descending Jacksonville Center
Mon 09:16:01 PM 29.5619 -82.3578 193° South 421 484 26,500 -1,050 Descending Jacksonville Center
Mon 09:17:01 PM 29.4344 -82.3417 174° South 434 499 25,400 -1,600 Descending Jacksonville Center
Mon 09:18:01 PM 29.3092 -82.3281 175° South 447 514 23,300 -2,400 Descending Jacksonville Center
Mon 09:19:01 PM 29.1858 -82.3097 173° South 452 520 20,600 -2,800 Descending Jacksonville Center
Mon 09:20:01 PM 29.0689 -82.2986 175° South 446 513 17,700 -3,000 Descending Jacksonville Center
Mon 09:21:01 PM 28.9414 -82.2828 174° South 433 498 14,600 -1,500 Descending Jacksonville Center
Mon 09:23:09 PM 28.7167 -82.2500 173° South 316 364 13,000 -830 Descending Tampa TRACON
Mon 09:24:09 PM 28.6333 -82.2667 190° South 299 344 12,000 -1,000 Descending Tampa TRACON
Mon 09:25:15 PM 28.5833 -82.3333 230° Southwest 270 311 10,900 -1,000 Descending Tampa TRACON
Mon 09:26:15 PM 28.5333 -82.4000 230° Southwest 270 311 9,900 -1,000 Descending Tampa TRACON
Mon 09:27:09 PM 28.5000 -82.4667 240° Southwest 274 315 9,000 -1,000 Descending Tampa TRACON
Mon 09:28:09 PM 28.4667 -82.5500 246° West 272 313 8,000 -1,000 Descending Tampa TRACON
Mon 09:29:09 PM 28.4333 -82.6167 240° Southwest 255 293 7,000 -1,000 Descending Tampa TRACON
Mon 09:30:21 PM 28.4000 -82.7000 246° West 263 303 5,800 -1,000 Descending Tampa TRACON
Mon 09:31:15 PM 28.3167 -82.7167 190° South 267 307 4,900 -895 Descending Tampa TRACON
Mon 09:32:15 PM 28.2500 -82.7167 180° South 262 302 4,100 -789 Descending Tampa TRACON
Mon 09:33:09 PM 28.1833 -82.7333 192° South 268 308 3,400 -800 Descending Tampa TRACON
Mon 09:34:15 PM 28.1167 -82.7167 168° South 262 302 2,500 -500 Descending Tampa TRACON
Mon 09:35:09 PM 28.0500 -82.7167 180° South 240 276 2,400 -522 Descending Tampa TRACON
Mon 09:36:10 PM 28.0000 -82.7000 164° South 165 190 1,500 -850 Descending Tampa TRACON
Mon 09:37:16 PM 27.9500 -82.7000 180° South 123 142 600 -818 Descending Tampa TRACON
Mon 09:39:00 PM 27.9100 -82.6875 165° South  Level Estimated
Mon 09:46:00 PM 27.9100 -82.6875 North  Level Estimated
Mon 09:47:00 PM 27.9100 -82.6875 North  Level Estimated

Login

Don't have an account? Register now (free) for customized features, flight alerts, and more!